Time;durP1;ratioP1;P1;durP2;ratioP2;P2;SDS_P1;SDS_P2;PMS_P1;PMS_P2;Temp;Humidity;BMP_temperature;BMP_pressure;BME280_temperature;BME280_humidity;BME280_pressure;Samples;Min_cycle;Max_cycle;Signal;HPM_P1;HPM_P2
2022/06/30 00:02:01;;;;;;;0.30;0.30;;;;;;;24.49;41.82;100539.94;5202055;28;20088;-79
2022/06/30 00:04:33;;;;;;;0.60;0.60;;;;;;;24.44;41.80;100534.13;5167926;28;20041;-79
2022/06/30 00:07:03;;;;;;;0.32;0.32;;;;;;;24.41;42.25;100530.84;5184842;28;20091;-79
2022/06/30 00:09:34;;;;;;;0.22;0.22;;;;;;;24.39;42.25;100535.50;5194267;28;20694;-79
2022/06/30 00:12:13;;;;;;;0.88;0.85;;;;;;;24.37;42.48;100535.66;5200275;28;20441;-79
2022/06/30 00:14:44;;;;;;;0.50;0.50;;;;;;;24.33;42.26;100540.44;5175161;28;20102;-79
2022/06/30 00:17:14;;;;;;;0.50;0.50;;;;;;;24.29;42.26;100525.63;5206758;28;20132;-79
2022/06/30 00:19:45;;;;;;;0.63;0.63;;;;;;;24.27;42.32;100532.06;5199023;28;20021;-79
2022/06/30 00:22:16;;;;;;;0.40;0.40;;;;;;;24.24;42.42;100527.00;5213842;28;20079;-79
2022/06/30 00:24:46;;;;;;;0.90;0.88;;;;;;;24.18;42.43;100526.53;5213484;28;20032;-79
2022/06/30 00:27:17;;;;;;;0.60;0.52;;;;;;;24.17;42.75;100524.00;5210945;28;20047;-79
2022/06/30 00:29:50;;;;;;;3.42;1.60;;;;;;;24.13;42.66;100526.13;5202148;28;20075;-80
2022/06/30 00:32:23;;;;;;;0.75;0.50;;;;;;;24.09;42.91;100521.16;5168610;28;20064;-79
2022/06/30 00:34:55;;;;;;;0.30;0.30;;;;;;;24.07;42.90;100509.72;5220407;28;20143;-80
2022/06/30 00:37:29;;;;;;;0.75;0.75;;;;;;;24.05;42.99;100512.53;5209766;28;20040;-80
2022/06/30 00:39:59;;;;;;;0.65;0.65;;;;;;;23.99;43.10;100507.72;5191188;28;20025;-80
2022/06/30 00:42:42;;;;;;;1.15;1.05;;;;;;;23.97;43.17;100512.34;5182497;28;20039;-80
2022/06/30 00:45:12;;;;;;;0.22;0.22;;;;;;;23.92;43.03;100504.69;5198080;28;20086;-80
2022/06/30 00:47:43;;;;;;;0.52;0.52;;;;;;;23.91;43.16;100504.84;5198522;28;20037;-80
2022/06/30 00:50:13;;;;;;;0.85;0.85;;;;;;;23.87;43.46;100510.44;5184742;28;20181;-80
2022/06/30 00:52:49;;;;;;;0.40;0.40;;;;;;;23.84;43.54;100512.53;5177570;28;20613;-81
2022/06/30 00:55:20;;;;;;;0.20;0.20;;;;;;;23.77;43.70;100509.53;5220713;28;20055;-80
2022/06/30 00:57:52;;;;;;;2.83;0.55;;;;;;;23.77;43.48;100506.03;5210289;28;20235;-80
2022/06/30 01:00:28;;;;;;;1.50;0.98;;;;;;;23.74;43.87;100502.63;5225244;28;20100;-80
2022/06/30 01:03:00;;;;;;;1.17;1.13;;;;;;;23.71;43.57;100507.41;5218607;28;20033;-81
2022/06/30 01:05:31;;;;;;;0.70;0.50;;;;;;;23.70;44.26;100495.84;5179648;28;20047;-80
2022/06/30 01:08:06;;;;;;;0.35;0.35;;;;;;;23.67;43.76;100497.94;5201266;28;20166;-80
2022/06/30 01:13:26;;;;;;;0.40;0.40;;;;;;;23.63;44.12;100499.16;5186363;28;20484;-80
2022/06/30 01:15:56;;;;;;;0.68;0.68;;;;;;;23.58;44.33;100502.25;5187840;28;20033;-79
2022/06/30 01:18:27;;;;;;;0.85;0.85;;;;;;;23.56;44.41;100507.75;5208876;28;20033;-80
2022/06/30 01:21:04;;;;;;;0.93;0.93;;;;;;;23.54;44.33;100501.66;5171680;28;20044;-80
2022/06/30 01:23:34;;;;;;;0.82;0.82;;;;;;;23.51;44.47;100499.22;5177786;28;20686;-79
2022/06/30 01:26:05;;;;;;;0.85;0.85;;;;;;;23.48;44.51;100501.31;5203841;28;20045;-80
2022/06/30 01:28:36;;;;;;;1.30;1.20;;;;;;;23.45;44.41;100506.97;5197044;28;20116;-79
2022/06/30 01:31:10;;;;;;;0.30;0.30;;;;;;;23.43;44.62;100504.41;5203261;28;20240;-80
2022/06/30 01:33:41;;;;;;;0.75;0.75;;;;;;;23.40;44.49;100523.41;5174148;28;20025;-79
2022/06/30 01:36:11;;;;;;;0.50;0.50;;;;;;;23.38;44.72;100511.97;5204250;28;20056;-78
2022/06/30 01:38:42;;;;;;;0.30;0.30;;;;;;;23.33;44.67;100515.03;5198127;28;20111;-79
2022/06/30 01:41:15;;;;;;;2.78;1.00;;;;;;;23.32;44.84;100515.19;5183841;28;20607;-79
2022/06/30 01:43:45;;;;;;;1.13;1.02;;;;;;;23.30;44.70;100509.09;5183242;28;20029;-79
2022/06/30 01:46:28;;;;;;;0.55;0.55;;;;;;;23.28;44.97;100511.91;5213206;28;20650;-79
2022/06/30 01:48:59;;;;;;;0.50;0.50;;;;;;;23.21;44.96;100506.22;5212288;28;20535;-79
2022/06/30 01:51:29;;;;;;;0.50;0.50;;;;;;;23.19;44.96;100512.69;5185143;28;20068;-79
2022/06/30 01:54:03;;;;;;;0.50;0.50;;;;;;;23.17;45.00;100515.47;5189043;28;20036;-79
2022/06/30 01:56:34;;;;;;;0.68;0.68;;;;;;;23.15;45.31;100505.84;5178072;28;20072;-79
2022/06/30 01:59:13;;;;;;;2.88;0.68;;;;;;;23.11;45.48;100508.81;5189344;28;20047;-79
2022/06/30 02:01:44;;;;;;;0.82;0.50;;;;;;;23.06;46.08;100507.47;5202079;28;20061;-79
2022/06/30 02:07:04;;;;;;;1.88;1.30;;;;;;;23.02;45.91;100512.25;5199924;28;20225;-79
2022/06/30 02:09:35;;;;;;;0.60;0.60;;;;;;;23.00;45.57;100511.50;5171472;28;20520;-78
2022/06/30 02:15:04;;;;;;;1.08;0.98;;;;;;;22.92;45.58;100516.66;5202198;28;20040;-79
2022/06/30 02:17:36;;;;;;;0.65;0.65;;;;;;;22.89;45.98;100515.09;5197406;28;20099;-79
2022/06/30 02:20:08;;;;;;;0.55;0.52;;;;;;;22.87;45.83;100518.88;5189550;28;20669;-79
2022/06/30 02:22:40;;;;;;;0.73;0.73;;;;;;;22.82;45.76;100515.69;5204808;28;20057;-79
2022/06/30 02:25:11;;;;;;;10.27;1.95;;;;;;;22.81;45.74;100512.19;5202035;28;20060;-80
2022/06/30 02:27:42;;;;;;;0.80;0.68;;;;;;;22.78;46.05;100515.97;5198232;28;20039;-79
2022/06/30 02:30:15;;;;;;;0.75;0.73;;;;;;;22.76;46.19;100517.09;5205853;28;20044;-78
2022/06/30 02:32:47;;;;;;;0.80;0.70;;;;;;;22.73;46.36;100528.00;5203963;28;20017;-79
2022/06/30 02:35:17;;;;;;;5.18;1.58;;;;;;;22.70;46.12;100517.56;5191133;28;20037;-79
2022/06/30 02:37:51;;;;;;;0.50;0.50;;;;;;;22.69;46.55;100521.19;5194168;28;20040;-79
2022/06/30 02:40:21;;;;;;;6.43;1.95;;;;;;;22.64;46.11;100522.44;5203325;28;20037;-79
2022/06/30 02:42:52;;;;;;;1.35;1.08;;;;;;;22.63;46.26;100527.94;5183921;28;20563;-79
2022/06/30 02:45:22;;;;;;;0.75;0.75;;;;;;;22.59;46.99;100527.31;5201051;28;20077;-79
2022/06/30 02:47:55;;;;;;;0.45;0.45;;;;;;;22.59;46.57;100531.81;5217294;28;20101;-79
2022/06/30 02:50:27;;;;;;;0.82;0.82;;;;;;;22.53;46.97;100526.97;5194638;28;20730;-79
2022/06/30 02:52:58;;;;;;;0.47;0.47;;;;;;;22.50;46.44;100533.41;5201526;28;20475;-79
2022/06/30 02:55:28;;;;;;;4.18;1.00;;;;;;;22.49;46.67;100539.72;5221584;28;20112;-79
2022/06/30 02:57:59;;;;;;;0.28;0.25;;;;;;;22.44;46.19;100536.56;5169563;28;20025;-79
2022/06/30 03:00:30;;;;;;;0.95;0.95;;;;;;;22.40;46.49;100527.09;5198539;28;20463;-79
2022/06/30 03:03:00;;;;;;;3.20;1.67;;;;;;;22.40;46.97;100527.09;5183401;28;20040;-79
2022/06/30 03:05:31;;;;;;;0.70;0.70;;;;;;;22.36;46.44;100522.94;5201282;28;20123;-79
2022/06/30 03:08:04;;;;;;;1.75;1.55;;;;;;;22.36;46.81;100528.28;5211992;28;20544;-79
2022/06/30 03:10:36;;;;;;;0.70;0.45;;;;;;;22.33;46.39;100519.56;5195624;28;20049;-79
2022/06/30 03:13:06;;;;;;;0.82;0.60;;;;;;;22.31;46.74;100518.81;5216578;28;20036;-79
2022/06/30 03:15:37;;;;;;;0.70;0.70;;;;;;;22.28;46.64;100519.03;5200695;28;20048;-79
2022/06/30 03:18:07;;;;;;;4.03;0.57;;;;;;;22.25;46.77;100513.09;5219906;28;20021;-79
2022/06/30 03:20:38;;;;;;;0.40;0.40;;;;;;;22.22;46.79;100514.19;5194053;28;20041;-79
2022/06/30 03:23:10;;;;;;;0.50;0.50;;;;;;;22.21;47.35;100519.69;5184819;28;20033;-80
2022/06/30 03:25:41;;;;;;;0.38;0.38;;;;;;;22.18;47.18;100523.44;5193105;28;20041;-80
2022/06/30 03:28:17;;;;;;;0.50;0.50;;;;;;;22.15;47.29;100518.34;5169727;28;20044;-80
2022/06/30 03:30:48;;;;;;;0.40;0.40;;;;;;;22.19;47.69;100524.28;5185682;28;20079;-80
2022/06/30 03:33:22;;;;;;;0.75;0.63;;;;;;;22.15;47.44;100523.69;5172681;28;20393;-80
2022/06/30 03:35:53;;;;;;;0.75;0.75;;;;;;;22.14;47.54;100520.16;5223555;28;20055;-79
2022/06/30 03:38:24;;;;;;;0.60;0.60;;;;;;;22.12;47.25;100526.59;5245316;28;20052;-79
2022/06/30 03:40:57;;;;;;;0.52;0.52;;;;;;;22.09;47.44;100522.34;5244021;28;20032;-80
2022/06/30 03:43:28;;;;;;;;;;;;;;;22.06;47.39;100517.25;5196265;28;20489;-81
2022/06/30 03:46:02;;;;;;;0.63;0.63;;;;;;;22.04;47.44;100515.66;5182127;28;19932;-80
2022/06/30 03:48:36;;;;;;;0.30;0.30;;;;;;;22.02;47.50;100513.13;5191752;28;20250;-81
2022/06/30 03:51:07;;;;;;;1.08;0.70;;;;;;;22.00;47.62;100510.56;5217815;28;20055;-81
2022/06/30 03:53:38;;;;;;;0.35;0.35;;;;;;;21.97;47.75;100510.81;5203016;28;20124;-80
2022/06/30 03:56:25;;;;;;;0.85;0.85;;;;;;;21.96;47.57;100514.44;5184039;28;20095;-80
2022/06/30 03:58:56;;;;;;;0.75;0.75;;;;;;;21.94;47.55;100512.88;5195111;28;20035;-78
2022/06/30 04:01:26;;;;;;;0.50;0.50;;;;;;;21.93;47.60;100511.16;5204174;28;20037;-78
2022/06/30 04:03:57;;;;;;;2.78;1.50;;;;;;;21.90;47.91;100514.09;5185113;28;20039;-78
2022/06/30 04:06:28;;;;;;;0.47;0.47;;;;;;;21.88;47.55;100511.53;5202365;28;20040;-79
2022/06/30 04:09:10;;;;;;;0.60;0.60;;;;;;;21.85;47.81;100514.44;5192697;28;20406;-79
2022/06/30 04:11:44;;;;;;;0.40;0.40;;;;;;;21.82;47.75;100509.34;5184853;28;20052;-79
2022/06/30 04:14:15;;;;;;;0.45;0.45;;;;;;;21.81;47.60;100513.84;5191224;28;20033;-80
2022/06/30 04:16:45;;;;;;;0.35;0.35;;;;;;;21.83;48.41;100517.22;5183980;28;20671;-80
2022/06/30 04:19:17;;;;;;;0.55;0.55;;;;;;;21.80;48.26;100512.13;5188914;28;20052;-80
2022/06/30 04:21:49;;;;;;;0.50;0.50;;;;;;;21.78;48.25;100505.19;5164995;28;20036;-80
2022/06/30 04:24:25;;;;;;;0.52;0.52;;;;;;;21.77;48.04;100506.19;5185900;28;20025;-79
2022/06/30 04:26:56;;;;;;;1.52;0.63;;;;;;;21.76;47.83;100507.16;5173359;28;20049;-80
2022/06/30 04:29:31;;;;;;;0.30;0.30;;;;;;;21.74;48.34;100506.41;5186100;28;20029;-79
2022/06/30 04:34:52;;;;;;;0.65;0.65;;;;;;;21.71;48.39;100499.50;5220663;28;20375;-80
2022/06/30 04:37:22;;;;;;;0.93;0.88;;;;;;;21.70;48.29;100498.63;5181090;28;20044;-79
2022/06/30 04:41:23;;;;;;;3.40;2.45;;;;;;;21.68;48.60;100500.59;5182608;28;20032;-79
2022/06/30 04:42:44;;;;;;;0.75;0.75;;;;;;;21.70;48.98;100503.97;5214988;28;20474;-79
2022/06/30 04:45:15;;;;;;;1.50;1.40;;;;;;;21.65;48.72;100503.50;5206360;28;20038;-80
2022/06/30 04:47:48;;;;;;;1.60;1.27;;;;;;;21.68;48.77;100495.25;5196662;28;20556;-79
2022/06/30 04:50:21;;;;;;;1.33;0.88;;;;;;;21.67;48.80;100495.34;5195989;28;20080;-80
2022/06/30 04:52:52;;;;;;;0.68;0.68;;;;;;;21.66;48.83;100491.84;5189325;28;20699;-80
2022/06/30 04:55:23;;;;;;;2.08;1.27;;;;;;;21.66;48.91;100490.97;5199986;28;20044;-79
2022/06/30 04:57:56;;;;;;;0.82;0.82;;;;;;;21.65;49.01;100495.47;5203216;28;20092;-79
2022/06/30 05:00:29;;;;;;;1.65;1.25;;;;;;;21.63;49.16;100501.91;5199926;28;20033;-80
2022/06/30 05:03:00;;;;;;;0.40;0.40;;;;;;;21.67;49.67;100493.56;5201262;28;20032;-80
2022/06/30 05:05:31;;;;;;;0.60;0.60;;;;;;;21.63;49.04;100497.41;5168124;28;20102;-80
2022/06/30 05:08:04;;;;;;;0.60;0.57;;;;;;;21.65;49.53;100491.97;5191607;28;20016;-80
2022/06/30 05:10:35;;;;;;;0.75;0.68;;;;;;;21.62;49.13;100490.38;5182842;28;20055;-79
2022/06/30 05:13:07;;;;;;;0.60;0.60;;;;;;;21.62;49.11;100485.03;5185035;28;20017;-79
2022/06/30 05:15:45;;;;;;;0.93;0.93;;;;;;;21.65;49.49;100484.81;5218233;28;20029;-79
2022/06/30 05:18:16;;;;;;;0.65;0.65;;;;;;;21.64;49.56;100490.28;5193834;28;20087;-80
2022/06/30 05:20:46;;;;;;;0.65;0.65;;;;;;;21.67;49.95;100490.00;5207908;28;20083;-79
2022/06/30 05:23:17;;;;;;;3.20;1.13;;;;;;;21.65;49.56;100492.81;5186339;28;20040;-79
2022/06/30 05:28:40;;;;;;;0.60;0.60;;;;;;;21.70;50.04;100495.13;5194544;28;20029;-79
2022/06/30 05:31:10;;;;;;;0.75;0.75;;;;;;;21.68;49.96;100489.06;5215791;28;20096;-79
2022/06/30 05:33:41;;;;;;;0.98;0.65;;;;;;;21.70;50.20;100489.78;5196838;28;20151;-79
2022/06/30 05:36:11;;;;;;;1.27;0.88;;;;;;;21.68;50.57;100484.56;5184531;28;20661;-79
2022/06/30 05:38:44;;;;;;;0.40;0.40;;;;;;;21.70;50.16;100487.94;5202134;28;20245;-78
2022/06/30 05:41:15;;;;;;;;;;;;;;;21.74;50.24;100490.41;5217326;28;20040;-79
2022/06/30 05:43:46;;;;;;;0.57;0.57;;;;;;;21.72;50.44;100487.00;5200059;28;20008;-79
2022/06/30 05:46:20;;;;;;;0.40;0.40;;;;;;;21.74;50.31;100493.06;5184931;28;20126;-78
2022/06/30 05:48:50;;;;;;;1.80;0.63;;;;;;;21.76;50.22;100488.47;5186290;28;20113;-78
2022/06/30 05:51:21;;;;;;;0.50;0.50;;;;;;;21.78;50.26;100486.50;5180734;28;20365;-79
2022/06/30 05:53:51;;;;;;;1.27;1.05;;;;;;;21.79;50.38;100493.53;5204451;28;20029;-79
2022/06/30 05:56:22;;;;;;;0.70;0.70;;;;;;;21.80;50.36;100493.44;5178002;28;20033;-79
2022/06/30 05:58:53;;;;;;;0.30;0.30;;;;;;;21.77;50.49;100492.84;5185472;28;20065;-79
2022/06/30 06:01:23;;;;;;;0.28;0.28;;;;;;;21.83;50.34;100503.03;5207286;28;20036;-79
2022/06/30 06:03:54;;;;;;;0.50;0.50;;;;;;;21.86;50.64;100494.75;5188267;28;20061;-79
2022/06/30 06:06:24;;;;;;;0.68;0.68;;;;;;;21.79;51.51;100493.53;5198806;28;20120;-79
2022/06/30 06:08:55;;;;;;;0.30;0.30;;;;;;;21.86;50.83;100497.44;5202957;28;20533;-80
2022/06/30 06:11:26;;;;;;;0.50;0.50;;;;;;;21.90;50.64;100496.22;5209758;28;20091;-79
2022/06/30 06:13:56;;;;;;;0.52;0.52;;;;;;;21.95;50.60;100503.88;5191600;28;20063;-80
2022/06/30 06:16:32;;;;;;;1.38;1.02;;;;;;;21.95;51.04;100506.56;5225793;28;20028;-78
2022/06/30 06:19:05;;;;;;;2.08;1.08;;;;;;;21.98;50.90;100507.16;5231669;28;20036;-79
2022/06/30 06:21:37;;;;;;;0.50;0.50;;;;;;;22.01;50.68;100511.41;5195717;28;20041;-79
2022/06/30 06:24:13;;;;;;;0.68;0.68;;;;;;;22.02;51.09;100513.94;5183754;28;20037;-79
2022/06/30 06:26:46;;;;;;;0.52;0.52;;;;;;;22.04;51.09;100513.84;5183787;28;20124;-79
2022/06/30 06:29:17;;;;;;;7.53;1.35;;;;;;;22.10;52.86;100516.03;5209504;28;20037;-79
2022/06/30 06:31:48;;;;;;;1.75;0.90;;;;;;;22.13;51.42;100510.47;5184632;28;20450;-79
2022/06/30 06:34:18;;;;;;;2.13;1.95;;;;;;;22.17;51.08;100514.56;5174024;28;20548;-79
2022/06/30 06:36:49;;;;;;;1.95;1.05;;;;;;;22.19;52.00;100514.44;5200716;28;20559;-80
2022/06/30 06:39:19;;;;;;;0.30;0.30;;;;;;;22.20;51.43;100521.47;5203620;28;20120;-82
2022/06/30 06:41:50;;;;;;;4.10;0.70;;;;;;;22.23;51.20;100521.25;5198767;28;20064;-81
2022/06/30 06:44:20;;;;;;;1.08;0.75;;;;;;;22.29;50.81;100526.09;5220156;28;20037;-81
2022/06/30 06:47:03;;;;;;;0.73;0.57;;;;;;;22.31;50.80;100520.66;5202116;28;20033;-80
2022/06/30 06:49:34;;;;;;;0.93;0.80;;;;;;;22.38;50.92;100527.19;5210704;28;20108;-80
2022/06/30 06:52:09;;;;;;;0.60;0.60;;;;;;;22.33;51.45;100524.91;5186980;28;20695;-81
2022/06/30 06:54:40;;;;;;;0.30;0.30;;;;;;;22.35;51.14;100523.94;5186786;28;20507;-82
2022/06/30 06:57:11;;;;;;;1.65;1.55;;;;;;;22.27;53.60;100516.50;5191310;28;20037;-80
2022/06/30 06:59:41;;;;;;;0.20;0.20;;;;;;;22.36;52.05;100518.44;5189433;28;20095;-80
2022/06/30 07:02:12;;;;;;;0.52;0.52;;;;;;;22.33;53.12;100516.00;5176344;28;20111;-82
2022/06/30 07:04:43;;;;;;;0.60;0.60;;;;;;;22.40;52.62;100516.41;5208921;28;20040;-81
2022/06/30 07:07:21;;;;;;;0.40;0.40;;;;;;;22.47;51.75;100517.59;5189373;28;20405;-80
2022/06/30 07:09:52;;;;;;;0.70;0.70;;;;;;;22.45;51.65;100524.91;5205988;28;20021;-80
2022/06/30 07:12:22;;;;;;;0.52;0.52;;;;;;;22.52;51.36;100526.09;5191809;28;20063;-80
2022/06/30 07:14:53;;;;;;;0.25;0.25;;;;;;;22.44;53.33;100528.53;5220827;28;20037;-83
2022/06/30 07:17:23;;;;;;;7.63;2.10;;;;;;;22.53;52.11;100537.66;5205103;28;20041;-81
2022/06/30 07:19:54;;;;;;;3.60;2.00;;;;;;;22.59;53.10;100540.69;5185651;28;20074;-80
2022/06/30 07:22:24;;;;;;;0.57;0.57;;;;;;;22.52;54.04;100534.13;5166875;28;20033;-80
2022/06/30 07:24:56;;;;;;;3.03;1.35;;;;;;;22.64;53.37;100543.00;5219945;28;20051;-81
2022/06/30 07:27:29;;;;;;;1.40;0.52;;;;;;;22.67;52.26;100540.06;5201449;28;20060;-81
2022/06/30 07:29:59;;;;;;;1.30;1.10;;;;;;;22.59;53.38;100540.69;5196135;28;20485;-81
2022/06/30 07:32:30;;;;;;;0.85;0.82;;;;;;;22.63;53.23;100539.47;5190059;28;20186;-80
2022/06/30 07:35:10;;;;;;;0.43;0.43;;;;;;;22.64;52.74;100543.84;5184966;28;20087;-81
2022/06/30 07:37:41;;;;;;;0.50;0.50;;;;;;;22.63;52.69;100550.16;5193286;28;20035;-80
2022/06/30 07:40:13;;;;;;;0.50;0.50;;;;;;;22.76;51.75;100551.84;5202741;28;20021;-81
2022/06/30 07:42:44;;;;;;;4.18;0.50;;;;;;;22.82;52.33;100556.69;5187522;28;20061;-81
2022/06/30 07:45:15;;;;;;;0.35;0.35;;;;;;;22.81;52.16;100554.16;5224728;28;20044;-80
2022/06/30 07:47:46;;;;;;;0.28;0.28;;;;;;;22.87;51.69;100557.16;5208424;28;20044;-80
2022/06/30 07:50:20;;;;;;;0.73;0.73;;;;;;;22.97;51.16;100561.75;5194793;28;20041;-80
2022/06/30 07:52:51;;;;;;;2.85;0.95;;;;;;;22.83;51.67;100546.81;5202280;28;20025;-81
2022/06/30 07:55:23;;;;;;;0.50;0.50;;;;;;;22.86;51.47;100554.59;5202383;28;20096;-80
2022/06/30 07:57:53;;;;;;;0.40;0.40;;;;;;;22.86;51.24;100559.97;5185244;28;20037;-81
2022/06/30 08:00:24;;;;;;;0.40;0.40;;;;;;;22.90;51.04;100559.59;5213695;28;20509;-83
2022/06/30 08:02:54;;;;;;;0.40;0.40;;;;;;;;;;5206240;28;20021;-82
2022/06/30 08:05:25;;;;;;;0.30;0.30;;;;;;;22.94;51.65;100561.00;5221732;28;20072;-83
2022/06/30 08:08:16;;;;;;;1.27;0.95;;;;;;;22.94;51.05;100574.41;5209729;28;20140;-81
2022/06/30 08:10:46;;;;;;;0.30;0.30;;;;;;;23.12;51.25;100571.19;5188570;28;20072;-82
2022/06/30 08:13:17;;;;;;;5.68;0.85;;;;;;;23.18;51.39;100576.06;5202131;28;20124;-81
2022/06/30 08:15:48;;;;;;;0.45;0.45;;;;;;;23.19;50.85;100572.41;5195959;28;20071;-81
2022/06/30 08:18:18;;;;;;;0.50;0.50;;;;;;;23.28;50.90;100570.81;5206133;28;20033;-82
2022/06/30 08:20:49;;;;;;;0.85;0.85;;;;;;;23.23;51.12;100573.88;5174642;28;20064;-81
2022/06/30 08:23:20;;;;;;;0.85;0.85;;;;;;;23.35;50.47;100560.41;5204500;28;20088;-81
2022/06/30 08:25:50;;;;;;;1.85;0.63;;;;;;;23.35;50.78;100569.31;5188146;28;20047;-82
2022/06/30 08:28:22;;;;;;;0.60;0.60;;;;;;;23.42;50.29;100564.28;5220822;28;20041;-81
2022/06/30 08:30:52;;;;;;;0.22;0.22;;;;;;;23.46;50.83;100571.06;5206983;28;20607;-82
2022/06/30 08:33:23;;;;;;;6.60;1.55;;;;;;;23.50;50.30;100563.63;5204280;28;20194;-83
2022/06/30 08:35:53;;;;;;;0.30;0.30;;;;;;;23.61;50.18;100560.03;5204466;28;20033;-80
2022/06/30 08:38:25;;;;;;;0.47;0.47;;;;;;;23.60;50.20;100559.22;5206666;28;20037;-83
2022/06/30 08:43:46;;;;;;;0.52;0.43;;;;;;;23.63;50.57;100547.38;5196476;28;20040;-81
2022/06/30 08:46:19;;;;;;;20.77;2.05;;;;;;;23.69;50.38;100552.19;5208583;28;20037;-81
2022/06/30 08:48:50;;;;;;;1.05;0.68;;;;;;;23.91;50.21;100548.53;5201626;28;20055;-81
2022/06/30 08:51:21;;;;;;;0.50;0.50;;;;;;;23.86;50.60;100546.25;5200474;28;20072;-81
2022/06/30 08:53:55;;;;;;;0.50;0.50;;;;;;;23.93;50.44;100546.56;5205868;28;20356;-81
2022/06/30 08:56:34;;;;;;;0.70;0.70;;;;;;;23.91;50.55;100545.03;5216492;28;20033;-82
2022/06/30 08:59:05;;;;;;;0.75;0.40;;;;;;;23.94;50.71;100545.63;5204597;28;20060;-82
2022/06/30 09:01:40;;;;;;;0.80;0.80;;;;;;;24.07;50.55;100550.78;5204897;28;20104;-83
2022/06/30 09:04:11;;;;;;;0.40;0.40;;;;;;;24.13;50.27;100538.69;5189723;28;20032;-79
2022/06/30 09:06:44;;;;;;;0.75;0.75;;;;;;;24.12;50.51;100542.34;5197290;28;20037;-80
2022/06/30 09:09:15;;;;;;;0.40;0.40;;;;;;;24.22;50.18;100550.41;5189272;28;20025;-80
2022/06/30 09:11:53;;;;;;;0.40;0.40;;;;;;;24.24;50.06;100554.66;5195578;28;20055;-79
2022/06/30 09:14:41;;;;;;;0.45;0.45;;;;;;;24.30;49.62;100558.63;5182688;28;20064;-80
2022/06/30 09:17:17;;;;;;;1.05;0.60;;;;;;;24.30;49.71;100558.63;5196285;28;20052;-81
2022/06/30 09:19:54;;;;;;;0.40;0.40;;;;;;;24.28;49.83;100561.44;5180623;28;20540;-80
2022/06/30 09:22:39;;;;;;;0.40;0.40;;;;;;;24.30;49.76;100561.31;5184672;28;20127;-81
2022/06/30 09:25:12;;;;;;;0.20;0.20;;;;;;;24.34;49.57;100554.69;5198064;28;20298;-79
2022/06/30 09:27:44;;;;;;;0.60;0.60;;;;;;;24.40;49.69;100547.94;5197533;28;20021;-82
2022/06/30 09:30:20;;;;;;;0.52;0.52;;;;;;;24.46;49.12;100548.25;5170826;28;20070;-82
2022/06/30 09:33:00;;;;;;;1.58;0.95;;;;;;;24.52;48.20;100547.69;5203828;28;20032;-80
2022/06/30 09:35:33;;;;;;;0.52;0.52;;;;;;;24.51;48.80;100548.66;5176760;28;20045;-80
2022/06/30 09:38:08;;;;;;;0.50;0.50;;;;;;;24.54;48.48;100547.56;5161647;28;20025;-79
2022/06/30 09:43:35;;;;;;;0.82;0.68;;;;;;;24.60;48.62;100546.16;5206784;28;20036;-80
2022/06/30 09:46:08;;;;;;;0.50;0.50;;;;;;;24.58;49.14;100542.78;5202346;28;20040;-81
2022/06/30 09:48:39;;;;;;;1.30;1.15;;;;;;;24.72;48.61;100550.47;5190202;28;20028;-83
2022/06/30 09:51:10;;;;;;;2.33;0.85;;;;;;;24.69;49.18;100539.16;5176282;28;20090;-81
2022/06/30 09:53:41;;;;;;;1.58;0.88;;;;;;;24.78;48.89;100546.38;5189133;28;20689;-79
2022/06/30 09:56:15;;;;;;;0.55;0.55;;;;;;;24.65;50.54;100539.38;5209361;28;20048;-79
2022/06/30 09:58:47;;;;;;;1.80;1.13;;;;;;;24.62;50.72;100541.50;5170330;28;20025;-79
2022/06/30 10:01:17;;;;;;;0.20;0.20;;;;;;;24.73;50.13;100552.16;5186255;28;20041;-81
2022/06/30 10:03:59;;;;;;;0.30;0.30;;;;;;;24.90;49.71;100552.47;5186740;28;20025;-81
2022/06/30 10:06:29;;;;;;;3.90;1.38;;;;;;;24.93;49.98;100541.44;5201582;28;20041;-79
2022/06/30 10:09:00;;;;;;;0.43;0.43;;;;;;;25.03;48.77;100538.78;5221122;28;20538;-81
2022/06/30 10:11:36;;;;;;;0.70;0.70;;;;;;;25.04;48.21;100538.63;5186256;28;20079;-80
2022/06/30 10:14:11;;;;;;;0.77;0.77;;;;;;;25.12;48.13;100541.47;5198031;28;20447;-79
2022/06/30 10:16:43;;;;;;;0.30;0.30;;;;;;;25.10;48.26;100540.75;5194964;28;20071;-79
2022/06/30 10:19:14;;;;;;;3.33;1.48;;;;;;;25.18;48.25;100539.19;5188272;28;20116;-80
2022/06/30 10:21:45;;;;;;;0.60;0.60;;;;;;;25.16;48.59;100536.66;5184438;28;20155;-82
2022/06/30 10:24:18;;;;;;;1.05;0.73;;;;;;;25.25;48.30;100529.56;5187287;28;20040;-82
2022/06/30 10:29:51;;;;;;;1.15;1.05;;;;;;;25.32;48.08;100528.03;5202768;28;20048;-79
2022/06/30 10:32:22;;;;;;;0.40;0.35;;;;;;;25.33;47.60;100527.03;5186547;28;20102;-79
2022/06/30 10:35:35;;;;;;;0.20;0.20;;;;;;;25.44;47.12;100532.28;5205286;28;20135;-80
2022/06/30 10:38:15;;;;;;;0.77;0.57;;;;;;;25.61;46.61;100530.72;5183299;28;20132;-80
2022/06/30 10:41:03;;;;;;;0.60;0.60;;;;;;;25.58;47.34;100525.63;5200758;28;20318;-80
2022/06/30 10:43:34;;;;;;;0.40;0.40;;;;;;;25.59;47.59;100526.47;5194566;28;20253;-79
2022/06/30 10:46:08;;;;;;;0.30;0.30;;;;;;;25.75;47.09;100526.72;5182468;28;20040;-79
2022/06/30 10:48:53;;;;;;;0.35;0.35;;;;;;;25.73;47.22;100528.72;5188659;28;20029;-80
2022/06/30 10:51:28;;;;;;;2.30;1.17;;;;;;;25.94;46.59;100527.66;5188798;28;20041;-79
2022/06/30 10:53:59;;;;;;;0.63;0.63;;;;;;;25.89;46.67;100521.88;5192107;28;20040;-79
2022/06/30 10:56:54;;;;;;;0.32;0.32;;;;;;;25.90;46.55;100519.03;5217111;28;20102;-81
2022/06/30 10:59:37;;;;;;;1.00;0.93;;;;;;;25.87;46.37;100518.47;5183992;28;20036;-80
2022/06/30 11:02:14;;;;;;;0.40;0.40;;;;;;;25.91;46.15;100515.34;5195908;28;20089;-81
2022/06/30 11:04:47;;;;;;;0.30;0.30;;;;;;;26.01;45.97;100518.00;5194172;28;20037;-81
2022/06/30 11:07:20;;;;;;;0.20;0.20;;;;;;;26.10;45.90;100515.44;5172779;28;20045;-81
2022/06/30 11:09:54;;;;;;;0.45;0.45;;;;;;;26.15;45.83;100511.34;5205727;28;20103;-80
2022/06/30 11:12:37;;;;;;;0.30;0.30;;;;;;;26.14;45.42;100508.81;5176437;28;20610;-81
2022/06/30 11:15:10;;;;;;;0.20;0.20;;;;;;;26.26;44.92;100510.28;5187456;28;20227;-82
2022/06/30 11:17:41;;;;;;;0.47;0.47;;;;;;;26.18;45.11;100510.19;5197727;28;20026;-82
2022/06/30 11:20:14;;;;;;;1.30;1.23;;;;;;;26.25;45.32;100505.91;5185505;28;20029;-83
2022/06/30 11:22:46;;;;;;;0.52;0.52;;;;;;;26.33;45.46;100500.63;5201872;28;20024;-81
2022/06/30 11:28:15;;;;;;;0.30;0.30;;;;;;;26.36;45.11;100502.19;5207543;28;20418;-82
2022/06/30 11:30:49;;;;;;;0.28;0.28;;;;;;;26.45;44.61;100503.13;5209582;28;20353;-83
2022/06/30 11:33:19;;;;;;;0.20;0.20;;;;;;;26.44;44.95;100496.03;5236553;28;20119;-83
2022/06/30 11:36:03;;;;;;;0.60;0.60;;;;;;;26.42;45.41;100490.81;5197427;28;20045;-81
2022/06/30 11:38:41;;;;;;;6.80;1.17;;;;;;;26.54;45.15;100494.97;5224081;28;20076;-80
2022/06/30 11:44:04;;;;;;;2.92;0.65;;;;;;;26.77;45.14;100477.56;5220225;28;20070;-82
2022/06/30 11:46:53;;;;;;;0.30;0.30;;;;;;;26.76;45.14;100471.38;5201572;28;20032;-82
2022/06/30 11:49:41;;;;;;;0.50;0.50;;;;;;;26.89;43.77;100470.13;5201261;28;20025;-82
2022/06/30 11:52:37;;;;;;;0.60;0.60;;;;;;;26.88;42.89;100468.41;5199741;28;20068;-80
2022/06/30 11:55:12;;;;;;;0.30;0.30;;;;;;;26.89;43.27;100465.59;5176415;28;20197;-81
2022/06/30 11:57:48;;;;;;;0.43;0.43;;;;;;;26.96;43.51;100474.75;5187011;28;20457;-80
2022/06/30 12:00:24;;;;;;;0.55;0.55;;;;;;;26.94;43.29;100467.81;5190053;28;20747;-82
2022/06/30 12:02:55;;;;;;;1.00;0.60;;;;;;;27.03;43.00;100466.88;5198148;28;20072;-83
2022/06/30 12:05:29;;;;;;;0.20;0.20;;;;;;;27.00;43.76;100457.25;5213896;28;20025;-79
2022/06/30 12:08:12;;;;;;;0.50;0.50;;;;;;;27.09;42.62;100455.50;5185971;28;20021;-79
2022/06/30 12:10:44;;;;;;;0.35;0.35;;;;;;;27.13;41.65;100456.03;5201243;28;20640;-79
2022/06/30 12:13:17;;;;;;;0.20;0.20;;;;;;;27.16;41.64;100453.88;5203885;28;20078;-79
2022/06/30 12:15:50;;;;;;;0.38;0.38;;;;;;;27.32;41.43;100445.03;5188033;28;20106;-79
2022/06/30 12:18:24;;;;;;;0.20;0.20;;;;;;;27.33;41.96;100435.97;5173237;28;20029;-80
2022/06/30 12:20:57;;;;;;;0.43;0.43;;;;;;;27.39;41.00;100430.97;5190706;28;20094;-79
2022/06/30 12:23:27;;;;;;;0.35;0.35;;;;;;;27.52;41.13;100428.72;5184699;28;20029;-79